sensor_id;sensor_type;location;lat;lon;timestamp;P1;durP1;ratioP1;P2;durP2;ratioP2
31594;SDS011;18200;48.726;8.892;2023-04-25T00:01:46;4.45;;;2.50;;
31594;SDS011;18200;48.726;8.892;2023-04-25T00:05:47;5.10;;;2.80;;
31594;SDS011;18200;48.726;8.892;2023-04-25T00:09:47;5.10;;;2.30;;
31594;SDS011;18200;48.726;8.892;2023-04-25T00:13:48;6.20;;;2.72;;
31594;SDS011;18200;48.726;8.892;2023-04-25T00:17:49;5.88;;;2.90;;
31594;SDS011;18200;48.726;8.892;2023-04-25T00:21:52;4.35;;;2.92;;
31594;SDS011;18200;48.726;8.892;2023-04-25T00:25:54;5.97;;;2.83;;
31594;SDS011;18200;48.726;8.892;2023-04-25T00:29:54;6.80;;;3.10;;
31594;SDS011;18200;48.726;8.892;2023-04-25T00:33:55;6.57;;;2.78;;
31594;SDS011;18200;48.726;8.892;2023-04-25T00:37:55;5.80;;;2.47;;
31594;SDS011;18200;48.726;8.892;2023-04-25T00:41:55;3.70;;;2.28;;
31594;SDS011;18200;48.726;8.892;2023-04-25T00:45:57;3.85;;;2.53;;
31594;SDS011;18200;48.726;8.892;2023-04-25T00:50:00;8.10;;;3.05;;
31594;SDS011;18200;48.726;8.892;2023-04-25T00:54:00;6.65;;;3.00;;
31594;SDS011;18200;48.726;8.892;2023-04-25T00:58:01;5.95;;;2.90;;
31594;SDS011;18200;48.726;8.892;2023-04-25T01:02:02;9.60;;;3.10;;
31594;SDS011;18200;48.726;8.892;2023-04-25T01:06:04;7.03;;;3.28;;
31594;SDS011;18200;48.726;8.892;2023-04-25T01:10:05;4.28;;;3.20;;
31594;SDS011;18200;48.726;8.892;2023-04-25T01:14:06;5.95;;;3.28;;
31594;SDS011;18200;48.726;8.892;2023-04-25T01:18:07;3.97;;;2.78;;
31594;SDS011;18200;48.726;8.892;2023-04-25T01:22:07;6.57;;;3.30;;
31594;SDS011;18200;48.726;8.892;2023-04-25T01:26:10;5.57;;;2.78;;
31594;SDS011;18200;48.726;8.892;2023-04-25T01:30:11;3.50;;;2.58;;
31594;SDS011;18200;48.726;8.892;2023-04-25T01:34:14;5.40;;;2.67;;
31594;SDS011;18200;48.726;8.892;2023-04-25T01:38:15;5.28;;;3.00;;
31594;SDS011;18200;48.726;8.892;2023-04-25T01:42:15;5.38;;;3.40;;
31594;SDS011;18200;48.726;8.892;2023-04-25T01:46:16;6.28;;;3.25;;
31594;SDS011;18200;48.726;8.892;2023-04-25T01:50:18;4.63;;;2.80;;
31594;SDS011;18200;48.726;8.892;2023-04-25T01:54:19;4.63;;;3.00;;
31594;SDS011;18200;48.726;8.892;2023-04-25T01:58:20;6.13;;;2.97;;
31594;SDS011;18200;48.726;8.892;2023-04-25T02:02:39;5.43;;;3.08;;
31594;SDS011;18200;48.726;8.892;2023-04-25T02:06:46;5.95;;;2.85;;
31594;SDS011;18200;48.726;8.892;2023-04-25T02:10:47;4.43;;;2.95;;
31594;SDS011;18200;48.726;8.892;2023-04-25T02:14:51;6.03;;;3.30;;
31594;SDS011;18200;48.726;8.892;2023-04-25T02:19:00;3.80;;;2.80;;
31594;SDS011;18200;48.726;8.892;2023-04-25T02:23:00;4.28;;;2.70;;
31594;SDS011;18200;48.726;8.892;2023-04-25T02:27:02;7.38;;;3.10;;
31594;SDS011;18200;48.726;8.892;2023-04-25T02:31:02;4.82;;;3.08;;
31594;SDS011;18200;48.726;8.892;2023-04-25T02:35:04;4.80;;;2.90;;
31594;SDS011;18200;48.726;8.892;2023-04-25T02:39:06;3.88;;;2.65;;
31594;SDS011;18200;48.726;8.892;2023-04-25T02:43:07;5.22;;;3.08;;
31594;SDS011;18200;48.726;8.892;2023-04-25T02:47:07;4.45;;;3.17;;
31594;SDS011;18200;48.726;8.892;2023-04-25T02:51:07;4.47;;;2.83;;
31594;SDS011;18200;48.726;8.892;2023-04-25T02:55:08;7.68;;;3.55;;
31594;SDS011;18200;48.726;8.892;2023-04-25T02:59:09;7.03;;;3.08;;
31594;SDS011;18200;48.726;8.892;2023-04-25T03:03:10;5.88;;;2.63;;
31594;SDS011;18200;48.726;8.892;2023-04-25T03:07:11;4.80;;;2.80;;
31594;SDS011;18200;48.726;8.892;2023-04-25T03:11:11;6.55;;;3.10;;
31594;SDS011;18200;48.726;8.892;2023-04-25T03:15:11;7.72;;;3.40;;
31594;SDS011;18200;48.726;8.892;2023-04-25T03:19:12;5.80;;;3.17;;
31594;SDS011;18200;48.726;8.892;2023-04-25T03:23:12;8.65;;;2.97;;
31594;SDS011;18200;48.726;8.892;2023-04-25T03:27:16;5.80;;;3.28;;
31594;SDS011;18200;48.726;8.892;2023-04-25T03:31:17;6.07;;;3.45;;
31594;SDS011;18200;48.726;8.892;2023-04-25T03:35:17;5.80;;;3.35;;
31594;SDS011;18200;48.726;8.892;2023-04-25T03:39:18;9.25;;;4.78;;
31594;SDS011;18200;48.726;8.892;2023-04-25T03:43:22;5.45;;;3.40;;
31594;SDS011;18200;48.726;8.892;2023-04-25T03:47:28;6.95;;;3.55;;
31594;SDS011;18200;48.726;8.892;2023-04-25T03:51:29;4.65;;;3.20;;
31594;SDS011;18200;48.726;8.892;2023-04-25T03:55:30;4.28;;;3.40;;
31594;SDS011;18200;48.726;8.892;2023-04-25T03:59:31;5.78;;;3.40;;
31594;SDS011;18200;48.726;8.892;2023-04-25T04:03:32;4.50;;;3.15;;
31594;SDS011;18200;48.726;8.892;2023-04-25T04:07:33;4.90;;;3.08;;
31594;SDS011;18200;48.726;8.892;2023-04-25T04:11:36;5.30;;;3.40;;
31594;SDS011;18200;48.726;8.892;2023-04-25T04:15:38;7.68;;;3.95;;
31594;SDS011;18200;48.726;8.892;2023-04-25T04:19:39;5.03;;;3.80;;
31594;SDS011;18200;48.726;8.892;2023-04-25T04:23:44;8.68;;;4.07;;
31594;SDS011;18200;48.726;8.892;2023-04-25T04:27:45;7.68;;;4.03;;
31594;SDS011;18200;48.726;8.892;2023-04-25T04:32:12;5.20;;;3.78;;
31594;SDS011;18200;48.726;8.892;2023-04-25T04:36:14;11.23;;;3.95;;
31594;SDS011;18200;48.726;8.892;2023-04-25T04:40:16;9.07;;;4.88;;
31594;SDS011;18200;48.726;8.892;2023-04-25T04:44:27;6.43;;;4.32;;
31594;SDS011;18200;48.726;8.892;2023-04-25T04:48:58;7.95;;;4.10;;
31594;SDS011;18200;48.726;8.892;2023-04-25T04:53:24;7.25;;;3.80;;
31594;SDS011;18200;48.726;8.892;2023-04-25T04:57:28;7.63;;;3.70;;
31594;SDS011;18200;48.726;8.892;2023-04-25T05:01:52;10.77;;;4.38;;
31594;SDS011;18200;48.726;8.892;2023-04-25T05:06:11;7.88;;;3.83;;
31594;SDS011;18200;48.726;8.892;2023-04-25T05:10:25;8.00;;;4.50;;
31594;SDS011;18200;48.726;8.892;2023-04-25T05:15:00;6.32;;;4.00;;
31594;SDS011;18200;48.726;8.892;2023-04-25T05:19:19;10.55;;;5.97;;
31594;SDS011;18200;48.726;8.892;2023-04-25T05:23:36;8.35;;;4.57;;
31594;SDS011;18200;48.726;8.892;2023-04-25T05:28:00;18.52;;;7.25;;
31594;SDS011;18200;48.726;8.892;2023-04-25T05:32:36;14.73;;;7.28;;
31594;SDS011;18200;48.726;8.892;2023-04-25T05:36:37;13.02;;;6.10;;
31594;SDS011;18200;48.726;8.892;2023-04-25T05:40:37;10.95;;;5.18;;
31594;SDS011;18200;48.726;8.892;2023-04-25T05:44:45;9.15;;;4.60;;
31594;SDS011;18200;48.726;8.892;2023-04-25T05:49:04;8.35;;;3.90;;
31594;SDS011;18200;48.726;8.892;2023-04-25T05:53:13;7.25;;;4.03;;
31594;SDS011;18200;48.726;8.892;2023-04-25T05:57:22;7.10;;;5.70;;
31594;SDS011;18200;48.726;8.892;2023-04-25T06:01:24;12.93;;;6.63;;
31594;SDS011;18200;48.726;8.892;2023-04-25T06:05:25;12.77;;;7.32;;
31594;SDS011;18200;48.726;8.892;2023-04-25T06:09:25;9.55;;;5.90;;
31594;SDS011;18200;48.726;8.892;2023-04-25T06:13:27;6.45;;;4.55;;
31594;SDS011;18200;48.726;8.892;2023-04-25T06:17:29;8.52;;;4.75;;
31594;SDS011;18200;48.726;8.892;2023-04-25T06:21:29;6.95;;;4.53;;
31594;SDS011;18200;48.726;8.892;2023-04-25T06:25:30;7.50;;;4.70;;
31594;SDS011;18200;48.726;8.892;2023-04-25T06:29:30;7.70;;;4.18;;
31594;SDS011;18200;48.726;8.892;2023-04-25T06:33:31;6.78;;;4.25;;
31594;SDS011;18200;48.726;8.892;2023-04-25T06:37:32;8.32;;;4.22;;
31594;SDS011;18200;48.726;8.892;2023-04-25T06:41:32;8.35;;;4.65;;
31594;SDS011;18200;48.726;8.892;2023-04-25T06:45:36;10.90;;;5.55;;
31594;SDS011;18200;48.726;8.892;2023-04-25T06:49:37;8.15;;;5.70;;
31594;SDS011;18200;48.726;8.892;2023-04-25T06:53:37;7.40;;;4.85;;
31594;SDS011;18200;48.726;8.892;2023-04-25T06:57:41;6.85;;;4.80;;
31594;SDS011;18200;48.726;8.892;2023-04-25T07:02:02;9.00;;;4.38;;
31594;SDS011;18200;48.726;8.892;2023-04-25T07:06:06;7.78;;;4.40;;
31594;SDS011;18200;48.726;8.892;2023-04-25T07:10:07;7.25;;;4.20;;
31594;SDS011;18200;48.726;8.892;2023-04-25T07:14:07;10.05;;;4.78;;
31594;SDS011;18200;48.726;8.892;2023-04-25T07:18:08;7.85;;;5.28;;
31594;SDS011;18200;48.726;8.892;2023-04-25T07:22:08;9.38;;;5.28;;
31594;SDS011;18200;48.726;8.892;2023-04-25T07:26:12;7.75;;;5.10;;
31594;SDS011;18200;48.726;8.892;2023-04-25T07:30:28;6.70;;;5.18;;
31594;SDS011;18200;48.726;8.892;2023-04-25T07:34:28;8.70;;;5.15;;
31594;SDS011;18200;48.726;8.892;2023-04-25T07:38:30;8.00;;;4.82;;
31594;SDS011;18200;48.726;8.892;2023-04-25T07:42:31;9.02;;;5.10;;
31594;SDS011;18200;48.726;8.892;2023-04-25T07:46:32;10.00;;;5.30;;
31594;SDS011;18200;48.726;8.892;2023-04-25T07:50:33;7.93;;;5.50;;
31594;SDS011;18200;48.726;8.892;2023-04-25T07:54:34;7.85;;;5.20;;
31594;SDS011;18200;48.726;8.892;2023-04-25T07:58:41;7.25;;;5.32;;
31594;SDS011;18200;48.726;8.892;2023-04-25T08:02:44;9.25;;;6.13;;
31594;SDS011;18200;48.726;8.892;2023-04-25T08:06:49;8.15;;;5.70;;
31594;SDS011;18200;48.726;8.892;2023-04-25T08:10:55;11.40;;;6.30;;
31594;SDS011;18200;48.726;8.892;2023-04-25T08:14:56;9.50;;;5.90;;
31594;SDS011;18200;48.726;8.892;2023-04-25T08:18:59;9.70;;;6.05;;
31594;SDS011;18200;48.726;8.892;2023-04-25T08:23:00;9.13;;;5.97;;
31594;SDS011;18200;48.726;8.892;2023-04-25T08:27:12;9.80;;;6.18;;
31594;SDS011;18200;48.726;8.892;2023-04-25T08:31:14;10.20;;;6.75;;
31594;SDS011;18200;48.726;8.892;2023-04-25T08:35:28;10.45;;;5.82;;
31594;SDS011;18200;48.726;8.892;2023-04-25T08:39:29;10.45;;;6.18;;
31594;SDS011;18200;48.726;8.892;2023-04-25T08:43:48;9.95;;;6.25;;
31594;SDS011;18200;48.726;8.892;2023-04-25T08:47:51;11.55;;;6.38;;
31594;SDS011;18200;48.726;8.892;2023-04-25T08:51:54;9.93;;;6.73;;
31594;SDS011;18200;48.726;8.892;2023-04-25T08:55:59;9.70;;;6.13;;
31594;SDS011;18200;48.726;8.892;2023-04-25T09:00:02;7.22;;;5.50;;
31594;SDS011;18200;48.726;8.892;2023-04-25T09:08:08;4.65;;;3.00;;
31594;SDS011;18200;48.726;8.892;2023-04-25T09:12:08;4.90;;;3.00;;
31594;SDS011;18200;48.726;8.892;2023-04-25T09:16:09;5.57;;;2.90;;
31594;SDS011;18200;48.726;8.892;2023-04-25T09:20:21;2.53;;;2.17;;
31594;SDS011;18200;48.726;8.892;2023-04-25T09:28:46;2.95;;;1.38;;
31594;SDS011;18200;48.726;8.892;2023-04-25T09:32:50;1.55;;;1.00;;
31594;SDS011;18200;48.726;8.892;2023-04-25T09:36:53;1.17;;;1.08;;
31594;SDS011;18200;48.726;8.892;2023-04-25T09:40:55;2.63;;;1.50;;
31594;SDS011;18200;48.726;8.892;2023-04-25T09:45:12;2.15;;;1.30;;
31594;SDS011;18200;48.726;8.892;2023-04-25T09:49:14;1.27;;;1.00;;
31594;SDS011;18200;48.726;8.892;2023-04-25T09:53:22;1.40;;;1.30;;
31594;SDS011;18200;48.726;8.892;2023-04-25T09:57:40;0.60;;;0.60;;
31594;SDS011;18200;48.726;8.892;2023-04-25T10:01:42;3.65;;;0.70;;
31594;SDS011;18200;48.726;8.892;2023-04-25T10:05:53;0.98;;;0.75;;
31594;SDS011;18200;48.726;8.892;2023-04-25T10:09:59;1.08;;;0.40;;
31594;SDS011;18200;48.726;8.892;2023-04-25T10:14:02;2.15;;;0.70;;
31594;SDS011;18200;48.726;8.892;2023-04-25T10:18:03;0.85;;;0.70;;
31594;SDS011;18200;48.726;8.892;2023-04-25T10:22:10;1.83;;;1.73;;
31594;SDS011;18200;48.726;8.892;2023-04-25T10:26:14;1.60;;;1.48;;
31594;SDS011;18200;48.726;8.892;2023-04-25T10:30:16;0.88;;;0.65;;
31594;SDS011;18200;48.726;8.892;2023-04-25T10:34:18;0.47;;;0.47;;
31594;SDS011;18200;48.726;8.892;2023-04-25T10:38:19;0.50;;;0.40;;
31594;SDS011;18200;48.726;8.892;2023-04-25T10:42:20;2.20;;;0.50;;
31594;SDS011;18200;48.726;8.892;2023-04-25T10:50:37;2.13;;;1.00;;
31594;SDS011;18200;48.726;8.892;2023-04-25T10:54:42;4.82;;;2.00;;
31594;SDS011;18200;48.726;8.892;2023-04-25T10:58:46;1.08;;;0.50;;
31594;SDS011;18200;48.726;8.892;2023-04-25T11:03:08;1.67;;;0.60;;
31594;SDS011;18200;48.726;8.892;2023-04-25T11:07:26;1.83;;;1.40;;
31594;SDS011;18200;48.726;8.892;2023-04-25T11:11:33;2.17;;;1.50;;
31594;SDS011;18200;48.726;8.892;2023-04-25T11:15:36;2.63;;;1.70;;
31594;SDS011;18200;48.726;8.892;2023-04-25T11:19:37;3.33;;;2.13;;
31594;SDS011;18200;48.726;8.892;2023-04-25T11:23:37;4.20;;;2.95;;
31594;SDS011;18200;48.726;8.892;2023-04-25T11:27:38;7.85;;;3.95;;
31594;SDS011;18200;48.726;8.892;2023-04-25T11:31:50;5.40;;;3.50;;
31594;SDS011;18200;48.726;8.892;2023-04-25T11:35:52;6.93;;;4.55;;
31594;SDS011;18200;48.726;8.892;2023-04-25T11:39:54;7.72;;;5.18;;
31594;SDS011;18200;48.726;8.892;2023-04-25T11:43:54;6.68;;;5.07;;
31594;SDS011;18200;48.726;8.892;2023-04-25T11:47:55;8.18;;;5.38;;
31594;SDS011;18200;48.726;8.892;2023-04-25T11:51:55;10.85;;;5.60;;
31594;SDS011;18200;48.726;8.892;2023-04-25T11:55:56;9.18;;;5.90;;
31594;SDS011;18200;48.726;8.892;2023-04-25T12:00:04;7.60;;;5.25;;
31594;SDS011;18200;48.726;8.892;2023-04-25T12:04:16;6.03;;;4.82;;
31594;SDS011;18200;48.726;8.892;2023-04-25T12:08:18;7.68;;;5.00;;
31594;SDS011;18200;48.726;8.892;2023-04-25T12:12:18;8.20;;;5.22;;
31594;SDS011;18200;48.726;8.892;2023-04-25T12:16:19;6.68;;;4.60;;
31594;SDS011;18200;48.726;8.892;2023-04-25T12:20:20;5.90;;;4.28;;
31594;SDS011;18200;48.726;8.892;2023-04-25T12:24:24;7.45;;;4.20;;
31594;SDS011;18200;48.726;8.892;2023-04-25T12:28:27;6.70;;;4.55;;
31594;SDS011;18200;48.726;8.892;2023-04-25T12:32:27;6.07;;;3.50;;
31594;SDS011;18200;48.726;8.892;2023-04-25T12:36:27;6.32;;;4.00;;
31594;SDS011;18200;48.726;8.892;2023-04-25T12:40:28;5.30;;;3.45;;
31594;SDS011;18200;48.726;8.892;2023-04-25T12:44:28;5.43;;;3.65;;
31594;SDS011;18200;48.726;8.892;2023-04-25T12:48:29;7.75;;;3.30;;
31594;SDS011;18200;48.726;8.892;2023-04-25T12:52:29;7.70;;;3.50;;
31594;SDS011;18200;48.726;8.892;2023-04-25T12:56:30;6.15;;;4.25;;
31594;SDS011;18200;48.726;8.892;2023-04-25T13:00:31;7.70;;;4.50;;
31594;SDS011;18200;48.726;8.892;2023-04-25T13:04:31;6.63;;;4.20;;
31594;SDS011;18200;48.726;8.892;2023-04-25T13:08:32;5.47;;;4.00;;
31594;SDS011;18200;48.726;8.892;2023-04-25T13:12:33;8.35;;;4.45;;
31594;SDS011;18200;48.726;8.892;2023-04-25T13:16:33;7.43;;;4.70;;
31594;SDS011;18200;48.726;8.892;2023-04-25T13:20:33;10.75;;;6.78;;
31594;SDS011;18200;48.726;8.892;2023-04-25T13:24:34;10.13;;;6.13;;
31594;SDS011;18200;48.726;8.892;2023-04-25T13:28:34;11.40;;;6.97;;
31594;SDS011;18200;48.726;8.892;2023-04-25T13:32:35;14.57;;;6.85;;
31594;SDS011;18200;48.726;8.892;2023-04-25T13:36:37;9.40;;;6.60;;
31594;SDS011;18200;48.726;8.892;2023-04-25T13:40:37;11.63;;;6.80;;
31594;SDS011;18200;48.726;8.892;2023-04-25T13:44:37;9.20;;;6.53;;
31594;SDS011;18200;48.726;8.892;2023-04-25T13:48:39;8.65;;;6.40;;
31594;SDS011;18200;48.726;8.892;2023-04-25T13:52:46;10.48;;;7.35;;
31594;SDS011;18200;48.726;8.892;2023-04-25T13:56:46;7.78;;;6.13;;
31594;SDS011;18200;48.726;8.892;2023-04-25T14:00:47;9.20;;;5.75;;
31594;SDS011;18200;48.726;8.892;2023-04-25T14:04:47;11.40;;;6.15;;
31594;SDS011;18200;48.726;8.892;2023-04-25T14:08:48;12.15;;;5.18;;
31594;SDS011;18200;48.726;8.892;2023-04-25T14:12:49;8.60;;;5.10;;
31594;SDS011;18200;48.726;8.892;2023-04-25T14:16:50;5.20;;;4.13;;
31594;SDS011;18200;48.726;8.892;2023-04-25T14:20:51;6.22;;;4.07;;
31594;SDS011;18200;48.726;8.892;2023-04-25T14:24:52;5.18;;;3.63;;
31594;SDS011;18200;48.726;8.892;2023-04-25T14:28:52;5.35;;;3.20;;
31594;SDS011;18200;48.726;8.892;2023-04-25T14:32:53;3.00;;;2.55;;
31594;SDS011;18200;48.726;8.892;2023-04-25T14:36:53;3.88;;;1.92;;
31594;SDS011;18200;48.726;8.892;2023-04-25T14:40:54;2.65;;;2.05;;
31594;SDS011;18200;48.726;8.892;2023-04-25T14:44:54;3.15;;;2.45;;
31594;SDS011;18200;48.726;8.892;2023-04-25T14:48:55;3.63;;;1.92;;
31594;SDS011;18200;48.726;8.892;2023-04-25T14:52:56;2.72;;;2.33;;
31594;SDS011;18200;48.726;8.892;2023-04-25T14:56:59;5.25;;;2.58;;
31594;SDS011;18200;48.726;8.892;2023-04-25T15:01:00;6.05;;;2.47;;
31594;SDS011;18200;48.726;8.892;2023-04-25T15:05:01;4.03;;;2.45;;
31594;SDS011;18200;48.726;8.892;2023-04-25T15:09:01;2.65;;;2.30;;
31594;SDS011;18200;48.726;8.892;2023-04-25T15:13:02;8.02;;;7.32;;
31594;SDS011;18200;48.726;8.892;2023-04-25T15:17:03;4.55;;;2.78;;
31594;SDS011;18200;48.726;8.892;2023-04-25T15:21:04;5.25;;;3.13;;
31594;SDS011;18200;48.726;8.892;2023-04-25T15:25:04;6.25;;;3.90;;
31594;SDS011;18200;48.726;8.892;2023-04-25T15:29:07;4.55;;;3.55;;
31594;SDS011;18200;48.726;8.892;2023-04-25T15:33:08;4.90;;;3.58;;
31594;SDS011;18200;48.726;8.892;2023-04-25T15:37:08;7.05;;;4.30;;
31594;SDS011;18200;48.726;8.892;2023-04-25T15:41:08;7.32;;;4.05;;
31594;SDS011;18200;48.726;8.892;2023-04-25T15:45:10;7.80;;;4.20;;
31594;SDS011;18200;48.726;8.892;2023-04-25T15:49:11;6.30;;;4.10;;
31594;SDS011;18200;48.726;8.892;2023-04-25T15:53:12;10.73;;;4.75;;
31594;SDS011;18200;48.726;8.892;2023-04-25T15:57:12;7.18;;;4.53;;
31594;SDS011;18200;48.726;8.892;2023-04-25T16:01:13;6.53;;;4.45;;
31594;SDS011;18200;48.726;8.892;2023-04-25T16:05:14;7.25;;;4.57;;
31594;SDS011;18200;48.726;8.892;2023-04-25T16:09:14;9.18;;;5.55;;
31594;SDS011;18200;48.726;8.892;2023-04-25T16:13:14;13.73;;;5.43;;
31594;SDS011;18200;48.726;8.892;2023-04-25T16:17:15;8.82;;;5.65;;
31594;SDS011;18200;48.726;8.892;2023-04-25T16:21:15;7.20;;;4.65;;
31594;SDS011;18200;48.726;8.892;2023-04-25T16:25:16;7.40;;;4.75;;
31594;SDS011;18200;48.726;8.892;2023-04-25T16:29:16;9.43;;;5.10;;
31594;SDS011;18200;48.726;8.892;2023-04-25T16:33:17;11.52;;;5.32;;
31594;SDS011;18200;48.726;8.892;2023-04-25T16:37:17;11.40;;;4.90;;
31594;SDS011;18200;48.726;8.892;2023-04-25T16:41:17;10.10;;;5.15;;
31594;SDS011;18200;48.726;8.892;2023-04-25T16:45:19;12.43;;;5.00;;
31594;SDS011;18200;48.726;8.892;2023-04-25T16:49:20;10.40;;;5.20;;
31594;SDS011;18200;48.726;8.892;2023-04-25T16:53:20;9.18;;;5.60;;
31594;SDS011;18200;48.726;8.892;2023-04-25T16:57:22;12.88;;;5.75;;
31594;SDS011;18200;48.726;8.892;2023-04-25T17:01:22;9.63;;;5.50;;
31594;SDS011;18200;48.726;8.892;2023-04-25T17:05:23;9.73;;;5.20;;
31594;SDS011;18200;48.726;8.892;2023-04-25T17:09:24;8.63;;;5.25;;
31594;SDS011;18200;48.726;8.892;2023-04-25T17:13:24;8.63;;;4.00;;
31594;SDS011;18200;48.726;8.892;2023-04-25T17:17:25;9.20;;;5.25;;
31594;SDS011;18200;48.726;8.892;2023-04-25T17:21:25;7.88;;;4.72;;
31594;SDS011;18200;48.726;8.892;2023-04-25T17:25:26;7.40;;;4.90;;
31594;SDS011;18200;48.726;8.892;2023-04-25T17:29:26;10.88;;;5.72;;
31594;SDS011;18200;48.726;8.892;2023-04-25T17:33:26;10.82;;;5.25;;
31594;SDS011;18200;48.726;8.892;2023-04-25T17:37:27;7.35;;;4.25;;
31594;SDS011;18200;48.726;8.892;2023-04-25T17:41:28;7.07;;;4.57;;
31594;SDS011;18200;48.726;8.892;2023-04-25T17:45:28;7.00;;;4.90;;
31594;SDS011;18200;48.726;8.892;2023-04-25T17:49:33;6.90;;;4.38;;
31594;SDS011;18200;48.726;8.892;2023-04-25T17:53:34;6.03;;;4.63;;
31594;SDS011;18200;48.726;8.892;2023-04-25T17:57:35;7.50;;;4.85;;
31594;SDS011;18200;48.726;8.892;2023-04-25T18:01:35;11.10;;;5.60;;
31594;SDS011;18200;48.726;8.892;2023-04-25T18:05:36;7.38;;;4.70;;
31594;SDS011;18200;48.726;8.892;2023-04-25T18:09:36;9.05;;;5.03;;
31594;SDS011;18200;48.726;8.892;2023-04-25T18:13:37;7.63;;;4.65;;
31594;SDS011;18200;48.726;8.892;2023-04-25T18:17:38;7.30;;;5.03;;
31594;SDS011;18200;48.726;8.892;2023-04-25T18:21:41;11.73;;;5.53;;
31594;SDS011;18200;48.726;8.892;2023-04-25T18:25:42;8.18;;;5.18;;
31594;SDS011;18200;48.726;8.892;2023-04-25T18:29:42;6.30;;;4.40;;
31594;SDS011;18200;48.726;8.892;2023-04-25T18:33:44;8.25;;;4.75;;
31594;SDS011;18200;48.726;8.892;2023-04-25T18:37:44;8.23;;;4.70;;
31594;SDS011;18200;48.726;8.892;2023-04-25T18:41:45;9.63;;;5.05;;
31594;SDS011;18200;48.726;8.892;2023-04-25T18:45:45;7.57;;;4.38;;
31594;SDS011;18200;48.726;8.892;2023-04-25T18:49:45;7.53;;;4.68;;
31594;SDS011;18200;48.726;8.892;2023-04-25T18:53:46;7.70;;;5.22;;
31594;SDS011;18200;48.726;8.892;2023-04-25T18:57:47;9.82;;;4.35;;
31594;SDS011;18200;48.726;8.892;2023-04-25T19:01:47;7.72;;;4.47;;
31594;SDS011;18200;48.726;8.892;2023-04-25T19:05:49;9.82;;;4.95;;
31594;SDS011;18200;48.726;8.892;2023-04-25T19:09:50;7.53;;;5.35;;
31594;SDS011;18200;48.726;8.892;2023-04-25T19:13:51;11.88;;;5.82;;
31594;SDS011;18200;48.726;8.892;2023-04-25T19:17:51;9.10;;;5.05;;
31594;SDS011;18200;48.726;8.892;2023-04-25T19:21:52;7.88;;;5.05;;
31594;SDS011;18200;48.726;8.892;2023-04-25T19:25:52;14.07;;;6.70;;
31594;SDS011;18200;48.726;8.892;2023-04-25T19:29:53;7.45;;;5.70;;
31594;SDS011;18200;48.726;8.892;2023-04-25T19:33:58;9.52;;;5.65;;
31594;SDS011;18200;48.726;8.892;2023-04-25T19:37:58;11.43;;;6.72;;
31594;SDS011;18200;48.726;8.892;2023-04-25T19:41:59;12.95;;;6.82;;
31594;SDS011;18200;48.726;8.892;2023-04-25T19:46:02;11.35;;;6.72;;
31594;SDS011;18200;48.726;8.892;2023-04-25T19:50:03;11.07;;;7.20;;
31594;SDS011;18200;48.726;8.892;2023-04-25T19:54:05;19.77;;;7.20;;
31594;SDS011;18200;48.726;8.892;2023-04-25T19:58:05;14.10;;;7.55;;
31594;SDS011;18200;48.726;8.892;2023-04-25T20:02:06;11.43;;;7.05;;
31594;SDS011;18200;48.726;8.892;2023-04-25T20:06:09;11.70;;;6.55;;
31594;SDS011;18200;48.726;8.892;2023-04-25T20:10:10;10.02;;;6.32;;
31594;SDS011;18200;48.726;8.892;2023-04-25T20:14:15;10.85;;;6.43;;
31594;SDS011;18200;48.726;8.892;2023-04-25T20:18:15;12.38;;;7.05;;
31594;SDS011;18200;48.726;8.892;2023-04-25T20:22:16;10.80;;;5.93;;
31594;SDS011;18200;48.726;8.892;2023-04-25T20:26:16;8.70;;;5.93;;
31594;SDS011;18200;48.726;8.892;2023-04-25T20:30:16;8.25;;;6.40;;
31594;SDS011;18200;48.726;8.892;2023-04-25T20:34:18;9.60;;;6.03;;
31594;SDS011;18200;48.726;8.892;2023-04-25T20:38:19;8.18;;;5.47;;
31594;SDS011;18200;48.726;8.892;2023-04-25T20:42:19;9.30;;;5.55;;
31594;SDS011;18200;48.726;8.892;2023-04-25T20:46:20;9.15;;;5.63;;
31594;SDS011;18200;48.726;8.892;2023-04-25T20:50:21;10.90;;;5.63;;
31594;SDS011;18200;48.726;8.892;2023-04-25T20:54:21;8.75;;;5.05;;
31594;SDS011;18200;48.726;8.892;2023-04-25T20:58:22;8.40;;;4.53;;
31594;SDS011;18200;48.726;8.892;2023-04-25T21:02:23;6.07;;;4.50;;
31594;SDS011;18200;48.726;8.892;2023-04-25T21:06:23;6.25;;;4.15;;
31594;SDS011;18200;48.726;8.892;2023-04-25T21:10:23;6.55;;;4.80;;
31594;SDS011;18200;48.726;8.892;2023-04-25T21:14:24;8.35;;;5.45;;
31594;SDS011;18200;48.726;8.892;2023-04-25T21:18:24;11.27;;;5.35;;
31594;SDS011;18200;48.726;8.892;2023-04-25T21:22:25;8.63;;;5.78;;
31594;SDS011;18200;48.726;8.892;2023-04-25T21:26:25;6.53;;;4.90;;
31594;SDS011;18200;48.726;8.892;2023-04-25T21:30:26;8.10;;;4.78;;
31594;SDS011;18200;48.726;8.892;2023-04-25T21:34:26;10.68;;;4.75;;
31594;SDS011;18200;48.726;8.892;2023-04-25T21:38:27;7.82;;;4.32;;
31594;SDS011;18200;48.726;8.892;2023-04-25T21:42:27;10.02;;;5.13;;
31594;SDS011;18200;48.726;8.892;2023-04-25T21:46:28;10.60;;;5.50;;
31594;SDS011;18200;48.726;8.892;2023-04-25T21:50:28;7.85;;;4.63;;
31594;SDS011;18200;48.726;8.892;2023-04-25T21:54:29;7.15;;;4.88;;
31594;SDS011;18200;48.726;8.892;2023-04-25T21:58:29;7.35;;;4.65;;
31594;SDS011;18200;48.726;8.892;2023-04-25T22:02:30;9.13;;;5.22;;
31594;SDS011;18200;48.726;8.892;2023-04-25T22:06:30;10.07;;;5.53;;
31594;SDS011;18200;48.726;8.892;2023-04-25T22:10:31;12.20;;;6.57;;
31594;SDS011;18200;48.726;8.892;2023-04-25T22:14:31;9.30;;;4.97;;
31594;SDS011;18200;48.726;8.892;2023-04-25T22:18:31;8.45;;;4.90;;
31594;SDS011;18200;48.726;8.892;2023-04-25T22:22:32;10.55;;;5.50;;
31594;SDS011;18200;48.726;8.892;2023-04-25T22:26:33;10.55;;;6.00;;
31594;SDS011;18200;48.726;8.892;2023-04-25T22:30:33;7.60;;;5.28;;
31594;SDS011;18200;48.726;8.892;2023-04-25T22:34:34;11.88;;;6.82;;
31594;SDS011;18200;48.726;8.892;2023-04-25T22:38:34;13.23;;;6.20;;
31594;SDS011;18200;48.726;8.892;2023-04-25T22:42:35;10.82;;;5.45;;
31594;SDS011;18200;48.726;8.892;2023-04-25T22:46:39;10.88;;;5.90;;
31594;SDS011;18200;48.726;8.892;2023-04-25T22:50:39;11.10;;;6.97;;
31594;SDS011;18200;48.726;8.892;2023-04-25T22:54:39;14.63;;;7.38;;
31594;SDS011;18200;48.726;8.892;2023-04-25T22:58:40;12.00;;;6.85;;
31594;SDS011;18200;48.726;8.892;2023-04-25T23:02:42;12.20;;;7.18;;
31594;SDS011;18200;48.726;8.892;2023-04-25T23:06:44;13.80;;;6.53;;
31594;SDS011;18200;48.726;8.892;2023-04-25T23:10:45;11.65;;;6.80;;
31594;SDS011;18200;48.726;8.892;2023-04-25T23:14:49;13.63;;;7.38;;
31594;SDS011;18200;48.726;8.892;2023-04-25T23:18:50;14.43;;;7.43;;
31594;SDS011;18200;48.726;8.892;2023-04-25T23:22:51;16.73;;;8.73;;
31594;SDS011;18200;48.726;8.892;2023-04-25T23:26:51;16.70;;;8.20;;
31594;SDS011;18200;48.726;8.892;2023-04-25T23:30:52;11.35;;;7.05;;
31594;SDS011;18200;48.726;8.892;2023-04-25T23:34:52;16.05;;;8.52;;
31594;SDS011;18200;48.726;8.892;2023-04-25T23:38:52;20.95;;;9.18;;
31594;SDS011;18200;48.726;8.892;2023-04-25T23:42:54;11.32;;;6.95;;
31594;SDS011;18200;48.726;8.892;2023-04-25T23:46:55;14.93;;;6.57;;
31594;SDS011;18200;48.726;8.892;2023-04-25T23:50:56;13.60;;;6.00;;
31594;SDS011;18200;48.726;8.892;2023-04-25T23:54:56;14.68;;;7.88;;
31594;SDS011;18200;48.726;8.892;2023-04-25T23:58:56;10.20;;;6.50;;
